This is the latest recevied weather packets stored in our database for station/object OH6HPS. If no packets are shown the sender has not sent any weather packets the latest 1 day(s).
| Time | Temp. | Humidity | Pressure | Rain* | Wind** | Luminosity | Snow |
|---|---|---|---|---|---|---|---|
| 1778041520 | 2.78° C | 87% | 1011 hPa | 0 mm | - | 181 W/m² | - |
| 1778039719 | -1.11° C | 95% | 1010.6 hPa | 0 mm | - | 128 W/m² | - |
| 1778039119 | -2.22° C | 94% | 1010.6 hPa | 0 mm | - | 95 W/m² | - |
| 1778038518 | -2.78° C | 94% | 1010.4 hPa | 0 mm | - | 49 W/m² | - |
| 1778037919 | -2.78° C | 93% | 1010.4 hPa | 0 mm | - | 25 W/m² | - |
| 1778037318 | -2.78° C | 92% | 1010.2 hPa | 0 mm | - | 16 W/m² | - |
| 1778036117 | -2.78° C | 93% | 1010 hPa | 0 mm | - | 12 W/m² | - |
| 1778034917 | -3.33° C | 93% | 1009.9 hPa | 0 mm | - | 7 W/m² | - |
| 1778034317 | -3.33° C | 93% | 1009.8 hPa | 0 mm | - | 5 W/m² | - |
| 1778033717 | -3.33° C | 93% | 1009.7 hPa | 0 mm | - | 0 W/m² | - |
| 1778032516 | -3.33° C | 91% | 1009.6 hPa | 0 mm | - | 0 W/m² | - |
| 1778031316 | -3.33° C | 91% | 1009.3 hPa | 0 mm | - | 0 W/m² | - |
| 1778030715 | -3.33° C | 91% | 1009.3 hPa | 0 mm | - | 0 W/m² | - |
| 1778030116 | -3.33° C | 91% | 1009.1 hPa | 0 mm | - | 0 W/m² | - |
| 1778029515 | -2.78° C | 91% | 1009.1 hPa | 0 mm | - | 0 W/m² | - |
| 1778028914 | -2.78° C | 91% | 1009.1 hPa | 0 mm | - | 0 W/m² | - |
| 1778028314 | -2.78° C | 91% | 1009 hPa | 0 mm | - | 0 W/m² | - |
| 1778027714 | -2.78° C | 91% | 1009 hPa | 0 mm | - | 0 W/m² | - |
| 1778026514 | -2.78° C | 90% | 1008.8 hPa | 0 mm | - | 0 W/m² | - |
| 1778025314 | -2.22° C | 89% | 1008.7 hPa | 0 mm | - | 0 W/m² | - |
| 1778024714 | -2.22° C | 89% | 1008.7 hPa | 0 mm | - | 0 W/m² | - |
| 1778023513 | -2.22° C | 89% | 1008.6 hPa | 0 mm | - | 0 W/m² | - |
| 1778019912 | -1.11° C | 85% | 1008.5 hPa | 0 mm | - | 0 W/m² | - |
| 1778018710 | -0.56° C | 84% | 1008.4 hPa | 0 mm | - | 0 W/m² | - |
* Rain latest hour (hover to see other rain measurements)
** Current wind speed in m/s (hover to see current wind gust speed)